Time;durP1;ratioP1;P1;durP2;ratioP2;P2;SDS_P1;SDS_P2;PMS_P1;PMS_P2;Temp;Humidity;BMP_temperature;BMP_pressure;BME280_temperature;BME280_humidity;BME280_pressure;Samples;Min_cycle;Max_cycle;Signal;HPM_P1;HPM_P2
2022/05/31 00:01:39;;;;;;;3.97;2.25;;;;;;;8.83;100.00;100284.84;5060026;28;20036;-66
2022/05/31 00:04:04;;;;;;;5.78;1.88;;;;;;;9.04;100.00;100306.63;5055616;28;20035;-66
2022/05/31 00:06:30;;;;;;;4.63;2.25;;;;;;;8.96;100.00;100291.25;5057598;28;20386;-66
2022/05/31 00:08:55;;;;;;;2.92;1.88;;;;;;;8.99;100.00;100292.91;5030559;28;20834;-66
2022/05/31 00:11:21;;;;;;;4.22;2.10;;;;;;;9.05;100.00;100301.34;5088536;28;20961;-66
2022/05/31 00:13:46;;;;;;;4.18;2.20;;;;;;;9.02;100.00;100298.81;5064252;28;20020;-66
2022/05/31 00:16:12;;;;;;;4.82;2.35;;;;;;;8.96;100.00;100283.38;5060869;28;20539;-67
2022/05/31 00:18:37;;;;;;;6.40;2.13;;;;;;;9.02;100.00;100285.72;5067402;28;20052;-66
2022/05/31 00:21:04;;;;;;;3.92;2.20;;;;;;;8.86;100.00;100261.13;5093077;28;20032;-66
2022/05/31 00:23:30;;;;;;;6.80;2.45;;;;;;;9.09;100.00;100294.19;5093830;28;20027;-66
2022/05/31 00:25:55;;;;;;;7.90;2.10;;;;;;;9.07;100.00;100283.75;5092400;28;20028;-66
2022/05/31 00:28:21;;;;;;;5.22;2.17;;;;;;;9.08;100.00;100284.59;5092596;28;20440;-66
2022/05/31 00:30:46;;;;;;;5.82;2.53;;;;;;;8.99;100.00;100271.94;5089993;28;20535;-66
2022/05/31 00:33:11;;;;;;;5.60;2.30;;;;;;;8.99;100.00;100278.00;5090985;28;20032;-66
2022/05/31 00:35:39;;;;;;;4.63;2.33;;;;;;;9.01;100.00;100278.81;5071194;28;20028;-66
2022/05/31 00:38:06;;;;;;;6.63;2.13;;;;;;;9.02;100.00;100277.84;5058471;28;20030;-66
2022/05/31 00:40:32;;;;;;;4.80;2.53;;;;;;;9.08;100.00;100285.47;5058499;28;20062;-66
2022/05/31 00:43:00;;;;;;;6.95;2.17;;;;;;;8.97;100.00;100264.13;5066343;28;20024;-66
2022/05/31 00:45:38;;;;;;;4.60;2.13;;;;;;;9.10;100.00;100282.75;5073415;28;20020;-66
2022/05/31 00:48:07;;;;;;;5.20;2.47;;;;;;;9.06;100.00;100271.56;5041782;28;20031;-66
2022/05/31 00:50:44;;;;;;;5.45;2.78;;;;;;;9.14;100.00;100285.19;5061326;28;20034;-66
2022/05/31 00:53:14;;;;;;;3.90;2.30;;;;;;;9.11;100.00;100280.06;5063775;28;20497;-66
2022/05/31 00:55:46;;;;;;;4.72;2.30;;;;;;;9.08;100.00;100279.38;5065067;28;20059;-66
2022/05/31 00:58:17;;;;;;;5.32;1.98;;;;;;;9.08;100.00;100279.38;5057599;28;20120;-66
2022/05/31 01:00:43;;;;;;;4.15;2.17;;;;;;;9.07;100.00;100281.13;5077578;28;20029;-66
2022/05/31 01:03:11;;;;;;;3.88;2.20;;;;;;;9.06;100.00;100281.19;5086600;28;20372;-66
2022/05/31 01:05:36;;;;;;;6.13;2.30;;;;;;;9.05;100.00;100274.28;5074059;28;20473;-66
2022/05/31 01:08:04;;;;;;;5.10;2.38;;;;;;;9.10;100.00;100278.38;5083554;28;20036;-66
2022/05/31 01:10:30;;;;;;;3.90;2.25;;;;;;;9.13;100.00;100275.59;5089342;28;20020;-66
2022/05/31 01:12:57;;;;;;;4.38;2.20;;;;;;;9.13;100.00;100277.38;5083530;28;20027;-66
2022/05/31 01:15:22;;;;;;;4.25;2.53;;;;;;;9.11;100.00;100261.72;5090253;28;20103;-66
2022/05/31 01:17:48;;;;;;;4.97;2.63;;;;;;;9.17;100.00;100269.31;5090475;28;20123;-66
2022/05/31 01:20:17;;;;;;;9.68;2.97;;;;;;;9.20;100.00;100270.91;5084718;28;20028;-67
2022/05/31 01:22:50;;;;;;;5.20;2.67;;;;;;;9.14;100.00;100258.09;5081768;28;20110;-66
2022/05/31 01:25:21;;;;;;;7.60;3.03;;;;;;;9.19;100.00;100264.81;5077965;28;20070;-66
2022/05/31 01:28:11;;;;;;;4.05;2.28;;;;;;;9.16;100.00;100267.59;5078607;28;20028;-66
2022/05/31 01:30:47;;;;;;;5.65;2.95;;;;;;;9.00;100.00;100240.41;5052051;28;20032;-66
2022/05/31 01:33:27;;;;;;;5.97;3.17;;;;;;;9.12;100.00;100257.34;5050341;28;20024;-66
2022/05/31 01:35:53;;;;;;;3.83;2.30;;;;;;;9.09;100.00;100260.09;5042872;28;20032;-66
2022/05/31 01:38:36;;;;;;;5.45;2.63;;;;;;;9.04;100.00;100248.97;5067416;28;20020;-66
2022/05/31 01:41:10;;;;;;;3.83;2.15;;;;;;;9.02;100.00;100254.28;5092784;28;20521;-66
2022/05/31 01:43:36;;;;;;;6.85;3.00;;;;;;;9.04;100.00;100256.84;5095448;28;20085;-66
2022/05/31 01:46:09;;;;;;;5.07;2.45;;;;;;;8.96;100.00;100233.59;5096017;28;20051;-65
2022/05/31 01:48:36;;;;;;;5.72;2.97;;;;;;;9.06;100.00;100255.84;5095911;28;20055;-66
2022/05/31 01:51:02;;;;;;;6.78;2.95;;;;;;;8.91;100.00;100232.97;5077852;28;20036;-66
2022/05/31 01:53:27;;;;;;;7.10;3.00;;;;;;;9.09;100.00;100249.63;5096716;28;20024;-66
2022/05/31 01:55:53;;;;;;;5.18;2.53;;;;;;;9.01;100.00;100242.09;5095953;28;20028;-66
2022/05/31 01:58:29;;;;;;;5.68;2.75;;;;;;;8.98;100.00;100231.78;5092867;28;20114;-66
2022/05/31 02:00:54;;;;;;;6.65;2.88;;;;;;;9.01;100.00;100252.59;5095347;28;20138;-66
2022/05/31 02:03:20;;;;;;;3.97;2.22;;;;;;;8.99;100.00;100243.94;5095068;28;20499;-66
2022/05/31 02:05:47;;;;;;;5.07;2.92;;;;;;;9.02;100.00;100246.41;5095027;28;20027;-66
2022/05/31 02:08:13;;;;;;;4.97;2.33;;;;;;;9.00;100.00;100237.78;5094233;28;20024;-66
2022/05/31 02:10:41;;;;;;;5.40;3.13;;;;;;;9.09;100.00;100250.44;5095064;28;20039;-66
2022/05/31 02:13:07;;;;;;;7.15;4.10;;;;;;;9.04;100.00;100235.88;5087313;28;20032;-66
2022/05/31 02:15:33;;;;;;;4.63;2.65;;;;;;;9.07;100.00;100244.44;5103538;28;20094;-66
2022/05/31 02:17:58;;;;;;;7.75;3.30;;;;;;;9.05;100.00;100232.34;5095029;28;20150;-66
2022/05/31 02:20:24;;;;;;;6.53;3.30;;;;;;;9.13;100.00;100245.91;5095135;28;20038;-66
2022/05/31 02:22:49;;;;;;;4.53;2.50;;;;;;;9.06;100.00;100231.41;5071996;28;20028;-66
2022/05/31 02:25:14;;;;;;;4.38;2.80;;;;;;;9.03;100.00;100219.28;5077305;28;20034;-66
2022/05/31 02:27:40;;;;;;;4.18;2.63;;;;;;;9.15;100.00;100239.69;5094998;28;20034;-67
2022/05/31 02:30:06;;;;;;;5.78;3.08;;;;;;;8.70;100.00;100173.69;5094617;28;20044;-67
2022/05/31 02:32:32;;;;;;;8.25;3.65;;;;;;;9.18;100.00;100236.94;5094948;28;20028;-67
2022/05/31 02:34:58;;;;;;;7.07;4.40;;;;;;;9.20;100.00;100236.84;5093468;28;20023;-67
2022/05/31 02:37:23;;;;;;;6.85;3.80;;;;;;;9.11;100.00;100217.19;5095340;28;20028;-66
2022/05/31 02:39:49;;;;;;;6.75;3.65;;;;;;;9.21;100.00;100234.16;5095474;28;20024;-66
2022/05/31 02:42:15;;;;;;;7.68;4.50;;;;;;;9.07;100.00;100209.50;5095619;28;20028;-66
2022/05/31 02:44:41;;;;;;;5.28;3.85;;;;;;;9.20;100.00;100232.47;5095301;28;20020;-66
2022/05/31 02:47:10;;;;;;;5.97;4.07;;;;;;;9.23;100.00;100234.94;5095960;28;20544;-66
2022/05/31 02:49:37;;;;;;;6.32;4.15;;;;;;;9.20;100.00;100232.47;5095773;28;20016;-65
2022/05/31 02:52:02;;;;;;;6.90;5.38;;;;;;;8.99;100.00;100186.28;5093677;28;20020;-65
2022/05/31 02:54:28;;;;;;;11.90;4.55;;;;;;;9.27;100.00;100229.53;5094869;28;20397;-65
2022/05/31 02:56:54;;;;;;;9.82;5.45;;;;;;;9.12;100.00;100197.91;5093156;28;20031;-66
2022/05/31 02:59:19;;;;;;;9.90;5.88;;;;;;;9.27;100.00;100216.44;5093826;28;20032;-66
2022/05/31 03:01:45;;;;;;;7.63;5.30;;;;;;;9.27;100.00;100213.81;5095235;28;20127;-65
2022/05/31 03:04:11;;;;;;;8.18;4.60;;;;;;;8.70;100.00;100106.44;5095174;28;20351;-66
2022/05/31 03:06:37;;;;;;;11.20;5.00;;;;;;;9.19;100.00;100177.50;5095129;28;20060;-65
2022/05/31 03:09:02;;;;;;;7.80;5.63;;;;;;;9.37;100.00;100205.44;5095166;28;20406;-65
2022/05/31 03:11:39;;;;;;;8.00;5.00;;;;;;;9.46;100.00;100212.03;5094945;28;20035;-66
2022/05/31 03:14:17;;;;;;;9.50;5.53;;;;;;;9.51;100.00;100210.00;5094453;28;20119;-66
2022/05/31 03:16:44;;;;;;;6.28;4.85;;;;;;;9.55;100.00;100211.56;5094264;28;20028;-66
2022/05/31 03:19:19;;;;;;;6.35;4.72;;;;;;;9.60;100.00;100220.03;5093910;28;20028;-66
2022/05/31 03:21:48;;;;;;;7.65;5.07;;;;;;;9.40;100.00;100179.06;5094029;28;20115;-66
2022/05/31 03:24:18;;;;;;;7.22;5.13;;;;;;;9.66;100.00;100211.91;5092298;28;20036;-65
2022/05/31 03:26:44;;;;;;;5.80;4.38;;;;;;;9.53;100.00;100189.81;5081643;28;20036;-67
2022/05/31 03:29:10;;;;;;;6.65;4.88;;;;;;;9.66;100.00;100214.53;5094504;28;20111;-67
2022/05/31 03:31:36;;;;;;;7.53;4.47;;;;;;;9.70;100.00;100216.03;5093159;28;20559;-67
2022/05/31 03:34:02;;;;;;;10.70;6.13;;;;;;;9.61;100.00;100200.75;5082027;28;20088;-67
2022/05/31 03:36:28;;;;;;;10.13;6.50;;;;;;;9.54;100.00;100196.75;5091681;28;20060;-67
2022/05/31 03:38:53;;;;;;;12.52;5.18;;;;;;;9.68;100.00;100229.25;5094672;28;20060;-67
2022/05/31 03:41:18;;;;;;;11.07;5.40;;;;;;;9.68;100.00;100234.50;5093200;28;20040;-68
2022/05/31 03:43:44;;;;;;;11.60;5.75;;;;;;;9.66;100.00;100240.75;5093650;28;20028;-67
2022/05/31 03:46:13;;;;;;;8.68;5.97;;;;;;;9.62;100.00;100233.94;5092401;28;20063;-67
2022/05/31 03:48:39;;;;;;;7.47;5.43;;;;;;;9.50;100.00;100213.53;5093580;28;20020;-67
2022/05/31 03:51:07;;;;;;;7.80;5.65;;;;;;;9.32;100.00;100185.63;5093454;28;20031;-66
2022/05/31 03:53:32;;;;;;;8.13;5.35;;;;;;;9.48;100.00;100231.13;5092847;28;20480;-67
2022/05/31 03:56:03;;;;;;;11.85;5.32;;;;;;;9.49;100.00;100232.84;5092439;28;20032;-67
2022/05/31 03:58:29;;;;;;;9.48;4.60;;;;;;;9.43;100.00;100235.78;5092763;28;20024;-67
2022/05/31 04:00:54;;;;;;;9.73;6.03;;;;;;;9.24;100.00;100212.19;5093461;28;20020;-67
2022/05/31 04:03:19;;;;;;;11.48;6.05;;;;;;;9.05;100.00;100188.63;5093369;28;20032;-67
2022/05/31 04:05:46;;;;;;;11.00;5.68;;;;;;;9.21;100.00;100218.44;5078867;28;20390;-66
2022/05/31 04:08:12;;;;;;;9.60;6.65;;;;;;;9.18;100.00;100217.72;5091677;28;20108;-67
2022/05/31 04:10:40;;;;;;;12.07;5.93;;;;;;;9.14;100.00;100219.66;5091174;28;20522;-67
2022/05/31 04:13:06;;;;;;;10.73;7.57;;;;;;;9.12;100.00;100229.38;5074531;28;20483;-67
2022/05/31 04:15:33;;;;;;;12.68;7.38;;;;;;;9.00;100.00;100206.34;5099712;28;20495;-67
2022/05/31 04:17:59;;;;;;;13.35;7.80;;;;;;;8.80;100.00;100174.97;5093142;28;20024;-68
2022/05/31 04:20:25;;;;;;;10.15;7.70;;;;;;;8.99;100.00;100207.25;5093974;28;20024;-68
2022/05/31 04:22:50;;;;;;;11.73;8.35;;;;;;;8.99;100.00;100215.09;5093555;28;20474;-68
2022/05/31 04:25:15;;;;;;;11.70;7.63;;;;;;;9.04;100.00;100210.53;5093457;28;20031;-69
2022/05/31 04:27:41;;;;;;;9.30;7.45;;;;;;;9.05;100.00;100217.47;5093375;28;20059;-70
2022/05/31 04:30:07;;;;;;;10.65;8.23;;;;;;;9.02;100.00;100214.97;5093163;28;20027;-70
2022/05/31 04:32:32;;;;;;;9.00;8.05;;;;;;;9.00;100.00;100210.72;5093224;28;20493;-70
2022/05/31 04:34:58;;;;;;;18.77;9.20;;;;;;;8.86;100.00;100190.41;5091466;28;20040;-71
2022/05/31 04:37:23;;;;;;;22.75;10.32;;;;;;;8.98;100.00;100202.09;5091558;28;20100;-71
2022/05/31 04:39:48;;;;;;;13.13;9.43;;;;;;;9.01;100.00;100209.81;5092307;28;20031;-70
2022/05/31 04:42:16;;;;;;;9.95;7.78;;;;;;;8.82;100.00;100183.59;5092772;28;20024;-70
2022/05/31 04:44:42;;;;;;;12.88;9.52;;;;;;;9.00;100.00;100214.19;5092673;28;20037;-70
2022/05/31 04:47:07;;;;;;;14.73;10.63;;;;;;;8.96;100.00;100207.41;5091190;28;20121;-70
2022/05/31 04:49:33;;;;;;;14.63;10.52;;;;;;;8.97;100.00;100214.34;5090879;28;20172;-70
2022/05/31 04:51:58;;;;;;;20.05;10.80;;;;;;;9.01;100.00;100210.66;5092682;28;20024;-70
2022/05/31 04:54:24;;;;;;;16.58;11.10;;;;;;;8.94;100.00;100197.91;5093318;28;20028;-70
2022/05/31 04:56:52;;;;;;;17.73;12.77;;;;;;;9.07;100.00;100223.47;5092795;28;20028;-70
2022/05/31 04:59:18;;;;;;;17.20;13.00;;;;;;;8.96;100.00;100198.69;5093327;28;20105;-70
2022/05/31 05:01:44;;;;;;;16.67;13.02;;;;;;;9.11;100.00;100203.22;5091563;28;20436;-70
2022/05/31 05:04:09;;;;;;;18.38;13.00;;;;;;;9.00;100.00;100181.91;5087342;28;20030;-70
2022/05/31 05:06:35;;;;;;;17.42;13.32;;;;;;;9.14;100.00;100193.44;5085835;28;20486;-70
2022/05/31 05:09:00;;;;;;;17.77;13.30;;;;;;;9.26;100.00;100204.25;5090922;28;20028;-70
2022/05/31 05:11:26;;;;;;;17.45;13.45;;;;;;;9.38;100.00;100215.00;5090455;28;20389;-71
2022/05/31 05:13:54;;;;;;;15.55;13.93;;;;;;;9.42;100.00;100220.97;5092018;28;20158;-70
2022/05/31 05:16:19;;;;;;;18.80;13.70;;;;;;;9.42;100.00;100215.72;5090165;28;20047;-70
2022/05/31 05:18:45;;;;;;;19.65;14.35;;;;;;;9.54;100.00;100230.84;5091774;28;20395;-70
2022/05/31 05:21:12;;;;;;;31.63;15.85;;;;;;;9.48;100.00;100218.88;5092467;28;20393;-70
2022/05/31 05:23:38;;;;;;;19.98;14.63;;;;;;;9.57;100.00;100230.69;5091591;28;20051;-70
2022/05/31 05:26:04;;;;;;;16.95;13.68;;;;;;;9.64;100.00;100238.19;5091268;28;20482;-70
2022/05/31 05:31:19;;;;;;;20.77;13.85;;;;;;;9.63;100.00;100228.63;5084181;28;20048;-70
2022/05/31 05:33:44;;;;;;;24.05;14.07;;;;;;;9.71;100.00;100236.13;5092439;28;20061;-70
2022/05/31 05:36:10;;;;;;;21.70;13.68;;;;;;;9.76;100.00;100242.00;5092655;28;20020;-70
2022/05/31 05:38:35;;;;;;;18.98;13.50;;;;;;;9.79;100.00;100230.50;5081760;28;20024;-70
2022/05/31 05:41:00;;;;;;;14.73;11.82;;;;;;;9.78;100.00;100219.16;5084191;28;20074;-70
2022/05/31 05:43:26;;;;;;;16.27;13.25;;;;;;;9.75;100.00;100208.81;5089954;28;20031;-70
2022/05/31 05:45:51;;;;;;;16.55;13.80;;;;;;;9.82;100.00;100220.69;5091738;28;20023;-70
2022/05/31 05:48:16;;;;;;;14.75;12.60;;;;;;;9.92;100.00;100232.44;5090763;28;20040;-70
2022/05/31 05:50:42;;;;;;;14.98;12.05;;;;;;;9.96;100.00;100233.97;5092644;28;20429;-70
2022/05/31 05:53:09;;;;;;;13.32;11.50;;;;;;;9.95;100.00;100223.56;5092255;28;20028;-70
2022/05/31 05:55:36;;;;;;;13.05;11.68;;;;;;;9.98;100.00;100221.63;5092535;28;20020;-70
2022/05/31 05:58:03;;;;;;;14.57;12.88;;;;;;;9.96;100.00;100212.97;5052543;28;20028;-71
2022/05/31 06:00:29;;;;;;;15.48;12.18;;;;;;;9.96;100.00;100205.13;5055873;28;20031;-71
2022/05/31 06:03:04;;;;;;;14.13;11.30;;;;;;;10.10;100.00;100226.25;5036704;28;20818;-70
2022/05/31 06:05:30;;;;;;;15.00;11.57;;;;;;;10.06;100.00;100208.97;5051727;28;20043;-70
2022/05/31 06:08:01;;;;;;;14.75;12.27;;;;;;;10.09;100.00;100211.44;5053006;28;20119;-70
2022/05/31 06:10:29;;;;;;;15.20;12.27;;;;;;;10.20;100.00;100219.66;5054087;28;20086;-70
2022/05/31 06:13:03;;;;;;;17.98;11.90;;;;;;;10.21;100.00;100223.94;5038989;28;20378;-70
2022/05/31 06:15:31;;;;;;;12.63;10.88;;;;;;;10.18;100.00;100213.59;5049043;28;20028;-70
2022/05/31 06:17:59;;;;;;;17.85;12.23;;;;;;;9.94;100.00;100161.47;5054335;28;20028;-70
2022/05/31 06:20:26;;;;;;;16.10;12.07;;;;;;;10.23;100.00;100193.22;5043727;28;20783;-70
2022/05/31 06:22:51;;;;;;;13.80;11.45;;;;;;;10.38;100.00;100214.34;5049490;28;20963;-70
2022/05/31 06:25:18;;;;;;;17.05;12.05;;;;;;;10.39;100.00;100210.78;5053543;28;20090;-70
2022/05/31 06:27:43;;;;;;;17.83;11.30;;;;;;;10.47;100.00;100212.09;5055292;28;20028;-69
2022/05/31 06:30:09;;;;;;;14.68;12.05;;;;;;;10.44;100.00;100203.53;5050298;28;20912;-70
2022/05/31 06:32:34;;;;;;;18.88;13.60;;;;;;;10.52;100.00;100212.69;5054708;28;20067;-70
2022/05/31 06:35:00;;;;;;;15.30;11.85;;;;;;;10.57;100.00;100215.09;5051431;28;20516;-70
2022/05/31 06:37:28;;;;;;;15.10;13.00;;;;;;;10.68;100.00;100223.22;5059730;28;20565;-70
2022/05/31 06:39:54;;;;;;;17.70;13.00;;;;;;;10.54;100.00;100200.34;5093766;28;20028;-69
2022/05/31 06:42:20;;;;;;;18.48;12.55;;;;;;;10.58;100.00;100211.50;5092793;28;20047;-70
2022/05/31 06:44:45;;;;;;;14.95;11.38;;;;;;;10.69;100.00;100224.94;5086831;28;20139;-69
2022/05/31 06:47:11;;;;;;;22.33;12.45;;;;;;;10.70;100.00;100219.63;5066748;28;20866;-69
2022/05/31 06:49:37;;;;;;;16.58;11.88;;;;;;;10.81;100.00;100229.56;5057680;28;20886;-70
2022/05/31 06:57:36;;;;;;;13.95;11.43;;;;;;;10.94;100.00;100229.72;5061692;28;20254;-69
2022/05/31 07:00:04;;;;;;;13.65;11.10;;;;;;;11.09;100.00;100242.03;5035120;28;20923;-69
2022/05/31 07:02:29;;;;;;;15.80;12.77;;;;;;;11.15;100.00;100234.66;5051801;28;20059;-69
2022/05/31 07:04:55;;;;;;;15.52;11.88;;;;;;;11.08;100.00;100201.75;5051436;28;20024;-69
2022/05/31 07:07:20;;;;;;;12.80;10.13;;;;;;;11.26;100.00;100221.75;5053499;28;20036;-68
2022/05/31 07:09:46;;;;;;;16.83;11.60;;;;;;;11.38;100.00;100230.75;5048387;28;20936;-68
2022/05/31 07:12:11;;;;;;;13.98;10.25;;;;;;;11.37;100.00;100212.41;5049872;28;20891;-68
2022/05/31 07:14:37;;;;;;;12.65;10.85;;;;;;;11.44;100.00;100224.28;5054539;28;20123;-68
2022/05/31 07:17:04;;;;;;;11.40;9.30;;;;;;;11.41;100.00;100213.94;5053611;28;20189;-68
2022/05/31 07:19:30;;;;;;;14.00;10.43;;;;;;;11.51;100.00;100223.88;5055630;28;20039;-68
2022/05/31 07:21:59;;;;;;;10.35;8.95;;;;;;;11.54;100.00;100220.22;5059560;28;20031;-68
2022/05/31 07:24:25;;;;;;;13.05;10.65;;;;;;;11.40;100.00;100183.31;5038960;28;20032;-68
2022/05/31 07:26:51;;;;;;;10.32;8.80;;;;;;;11.78;100.00;100227.59;5037644;28;20032;-68
2022/05/31 07:29:16;;;;;;;12.38;9.80;;;;;;;11.90;100.00;100223.38;5047571;28;20814;-68
2022/05/31 07:31:44;;;;;;;10.70;9.02;;;;;;;12.02;100.00;100238.47;5049387;28;20027;-68
2022/05/31 07:34:12;;;;;;;13.77;8.55;;;;;;;12.09;100.00;100234.53;5043688;28;20635;-68
2022/05/31 07:36:39;;;;;;;12.52;9.70;;;;;;;12.13;100.00;100228.13;5049732;28;20087;-68
2022/05/31 07:39:05;;;;;;;13.23;9.70;;;;;;;12.17;100.00;100213.84;5052915;28;20053;-68
2022/05/31 07:41:32;;;;;;;10.77;8.95;;;;;;;11.90;100.00;100154.91;5049270;28;20040;-68
2022/05/31 07:43:59;;;;;;;10.70;9.40;;;;;;;12.42;100.00;100236.09;5049739;28;20023;-68
2022/05/31 07:46:24;;;;;;;9.65;8.40;;;;;;;12.46;100.00;100232.34;5051913;28;20043;-68
2022/05/31 07:48:50;;;;;;;21.88;10.57;;;;;;;12.35;100.00;100225.09;5048744;28;20031;-68
2022/05/31 07:51:15;;;;;;;9.52;8.45;;;;;;;12.12;100.00;100202.75;5047300;28;20865;-68
2022/05/31 07:53:40;;;;;;;14.85;8.80;;;;;;;12.26;100.00;100233.53;5047186;28;20051;-68
2022/05/31 07:56:09;;;;;;;13.70;9.82;;;;;;;12.19;100.00;100224.31;5048929;28;20141;-68
2022/05/31 07:58:37;;;;;;;14.43;11.52;;;;;;;12.21;100.00;100231.16;5047470;28;20399;-68
2022/05/31 08:01:07;;;;;;;15.00;11.32;;;;;;;12.13;100.00;100209.69;5046051;28;20027;-68
2022/05/31 08:03:33;;;;;;;13.73;10.52;;;;;;;12.20;100.00;100221.56;5044479;28;20020;-68
2022/05/31 08:06:23;;;;;;;13.60;10.98;;;;;;;12.22;100.00;100214.44;5047848;28;20024;-68
2022/05/31 08:08:49;;;;;;;11.07;8.77;;;;;;;12.23;100.00;100208.22;5047347;28;20040;-68
2022/05/31 08:11:24;;;;;;;14.43;8.70;;;;;;;12.26;100.00;100209.84;5051649;28;20906;-68
2022/05/31 08:13:50;;;;;;;7.90;6.53;;;;;;;12.27;100.00;100212.34;5045618;28;20049;-68
2022/05/31 08:16:17;;;;;;;12.18;6.65;;;;;;;12.30;100.00;100225.34;5047204;28;20887;-68
2022/05/31 08:18:42;;;;;;;7.75;6.47;;;;;;;12.26;100.00;100213.31;5046845;28;20028;-68
2022/05/31 08:21:11;;;;;;;8.57;6.38;;;;;;;12.43;100.00;100222.00;5048112;28;20745;-68
2022/05/31 08:23:37;;;;;;;8.45;6.47;;;;;;;12.53;100.00;100215.22;5044452;28;20024;-68
2022/05/31 08:26:03;;;;;;;12.30;6.75;;;;;;;12.60;100.00;100203.38;5048133;28;20031;-68
2022/05/31 08:28:30;;;;;;;9.73;5.32;;;;;;;12.73;100.00;100214.84;5045866;28;20827;-68
2022/05/31 08:30:58;;;;;;;11.40;5.45;;;;;;;12.82;100.00;100217.75;5046815;28;20144;-68
2022/05/31 08:33:25;;;;;;;9.25;6.05;;;;;;;12.94;100.00;100218.78;5047103;28;20039;-68
2022/05/31 08:35:51;;;;;;;8.25;5.63;;;;;;;13.11;100.00;100213.28;5048627;28;20127;-68
2022/05/31 08:38:16;;;;;;;7.55;5.55;;;;;;;13.19;100.00;100213.66;5047050;28;20024;-68
2022/05/31 08:40:58;;;;;;;11.27;5.85;;;;;;;13.28;100.00;100210.44;5047136;28;20143;-68
2022/05/31 08:43:32;;;;;;;8.43;5.05;;;;;;;13.46;100.00;100224.25;5046334;28;20064;-68
2022/05/31 08:46:03;;;;;;;6.80;4.55;;;;;;;13.48;100.00;100213.59;5047094;28;20035;-68
2022/05/31 08:48:33;;;;;;;9.77;4.68;;;;;;;13.60;100.00;100225.97;5046708;28;20855;-68
2022/05/31 08:56:58;;;;;;;8.13;5.10;;;;;;;13.74;100.00;100208.28;5043767;28;20043;-68
2022/05/31 08:59:54;;;;;;;11.52;6.32;;;;;;;13.91;100.00;100212.44;5046286;28;20032;-68
2022/05/31 09:02:23;;;;;;;7.35;5.60;;;;;;;13.99;100.00;100202.19;5046269;28;20032;-68
2022/05/31 09:05:04;;;;;;;10.27;5.80;;;;;;;14.13;100.00;100210.03;5050869;28;20035;-68
2022/05/31 09:07:35;;;;;;;9.68;5.38;;;;;;;13.98;100.00;100176.75;5065563;28;20032;-67
2022/05/31 09:10:38;;;;;;;6.40;4.50;;;;;;;14.21;100.00;100205.09;5051237;28;20229;-68
2022/05/31 09:13:15;;;;;;;14.90;5.70;;;;;;;14.17;100.00;100203.59;5046394;28;20147;-68
2022/05/31 09:15:45;;;;;;;9.95;4.70;;;;;;;14.24;100.00;100210.16;5044292;28;20038;-68
2022/05/31 09:18:18;;;;;;;7.82;5.05;;;;;;;14.43;100.00;100208.94;5045274;28;20578;-68
2022/05/31 09:20:58;;;;;;;7.75;5.22;;;;;;;14.54;100.00;100201.94;5041685;28;20028;-68
2022/05/31 09:23:30;;;;;;;8.75;4.63;;;;;;;14.58;100.00;100190.22;5045425;28;20035;-68
2022/05/31 09:26:13;;;;;;;5.15;3.90;;;;;;;14.81;100.00;100191.22;5036962;28;20039;-68
2022/05/31 09:28:53;;;;;;;9.90;4.68;;;;;;;15.06;100.00;100195.63;5030281;28;20142;-68
2022/05/31 09:31:33;;;;;;;7.20;3.92;;;;;;;15.16;100.00;100197.50;5035925;28;20135;-67
2022/05/31 09:34:11;;;;;;;8.77;4.75;;;;;;;15.22;100.00;100183.81;5031037;28;20024;-67
2022/05/31 09:36:50;;;;;;;6.45;4.60;;;;;;;15.17;100.00;100162.16;5046817;28;20028;-67
2022/05/31 09:39:27;;;;;;;5.57;4.57;;;;;;;15.45;100.00;100194.53;5046102;28;20098;-68
2022/05/31 09:41:59;;;;;;;6.68;4.82;;;;;;;15.29;100.00;100185.06;5049367;28;20050;-69
2022/05/31 09:44:27;;;;;;;9.70;5.10;;;;;;;15.31;100.00;100191.09;5053961;28;20032;-68
2022/05/31 09:47:04;;;;;;;6.50;4.57;;;;;;;15.30;100.00;100176.19;5053018;28;20091;-68
2022/05/31 09:49:40;;;;;;;5.32;4.10;;;;;;;15.57;100.00;100186.56;5054666;28;20844;-68
2022/05/31 09:52:21;;;;;;;7.18;4.30;;;;;;;15.73;100.00;100184.47;5054238;28;20047;-68
2022/05/31 09:58:05;;;;;;;7.88;4.85;;;;;;;16.14;100.00;100178.69;5045728;28;20938;-68
2022/05/31 10:00:30;;;;;;;7.57;4.63;;;;;;;16.26;100.00;100166.28;5052990;28;20094;-68
2022/05/31 10:03:16;;;;;;;5.88;4.22;;;;;;;16.33;100.00;100173.63;5059232;28;20036;-68
2022/05/31 10:05:45;;;;;;;7.55;4.60;;;;;;;16.34;100.00;100163.88;5054398;28;20067;-68
2022/05/31 10:08:30;;;;;;;6.30;4.05;;;;;;;16.66;100.00;100177.31;5061476;28;20032;-68
2022/05/31 10:10:55;;;;;;;5.60;3.40;;;;;;;16.91;100.00;100158.47;5049717;28;20056;-67
2022/05/31 10:13:39;;;;;;;5.40;3.47;;;;;;;17.19;100.00;100173.88;5060542;28;20786;-68
2022/05/31 10:16:10;;;;;;;6.35;4.00;;;;;;;17.41;100.00;100161.47;5060868;28;20887;-67
2022/05/31 10:18:47;;;;;;;11.40;4.30;;;;;;;17.67;100.00;100165.53;5052817;28;20020;-68
2022/05/31 10:21:12;;;;;;;18.42;4.30;;;;;;;17.40;100.00;100119.97;5044229;28;20032;-67
2022/05/31 10:23:44;;;;;;;5.93;4.05;;;;;;;17.46;100.00;100149.53;5050077;28;20096;-67
2022/05/31 10:26:33;;;;;;;5.10;3.80;;;;;;;17.44;98.96;100147.97;5052700;28;20032;-68
2022/05/31 10:29:00;;;;;;;6.75;3.78;;;;;;;17.52;99.07;100158.78;5063914;28;20453;-68
2022/05/31 10:31:38;;;;;;;7.30;3.60;;;;;;;17.15;100.00;100114.00;5062775;28;20036;-68
2022/05/31 10:34:38;;;;;;;9.75;4.03;;;;;;;17.35;100.00;100163.69;5060799;28;20039;-67
2022/05/31 10:37:06;;;;;;;5.65;3.67;;;;;;;17.32;100.00;100163.94;5049654;28;20049;-67
2022/05/31 10:39:38;;;;;;;12.18;3.75;;;;;;;17.30;100.00;100155.22;5057796;28;20159;-67
2022/05/31 10:42:09;;;;;;;5.05;2.72;;;;;;;17.25;100.00;100167.22;5062031;28;20052;-68
2022/05/31 10:44:39;;;;;;;4.80;1.88;;;;;;;17.19;93.05;100152.63;5052079;28;20040;-68
2022/05/31 10:47:16;;;;;;;9.18;2.92;;;;;;;17.35;91.38;100158.38;5048212;28;20051;-68
2022/05/31 10:49:43;;;;;;;5.93;2.83;;;;;;;17.14;100.00;100138.88;5043646;28;20028;-67
2022/05/31 10:52:35;;;;;;;5.57;2.97;;;;;;;17.14;100.00;100154.81;5051847;28;20093;-68
2022/05/31 10:55:22;;;;;;;4.30;2.70;;;;;;;16.92;92.71;100154.00;5054375;28;20031;-68
2022/05/31 10:58:35;;;;;;;4.57;2.38;;;;;;;16.76;90.12;100157.06;5059351;28;20036;-68
2022/05/31 11:01:27;;;;;;;5.90;1.98;;;;;;;16.69;99.78;100150.53;5024014;28;20036;-68
2022/05/31 11:04:11;;;;;;;8.55;2.33;;;;;;;16.64;84.54;100153.56;5056745;28;20089;-68
2022/05/31 11:06:49;;;;;;;11.98;3.05;;;;;;;16.63;85.75;100159.81;5050231;28;20027;-68
2022/05/31 11:12:10;;;;;;;6.70;2.83;;;;;;;16.52;83.31;100167.75;5059432;28;20160;-68
2022/05/31 11:14:57;;;;;;;4.55;2.30;;;;;;;16.47;83.50;100158.47;5054139;28;20085;-68
2022/05/31 11:17:41;;;;;;;4.25;2.47;;;;;;;16.40;82.30;100158.09;5051144;28;20367;-68
2022/05/31 11:20:19;;;;;;;8.93;2.67;;;;;;;16.32;84.07;100164.00;5047340;28;20082;-68
2022/05/31 11:23:10;;;;;;;5.38;2.22;;;;;;;16.40;89.64;100126.28;5057751;28;20092;-68
2022/05/31 11:25:38;;;;;;;7.88;3.05;;;;;;;17.26;90.68;100158.28;5050931;28;20039;-68
2022/05/31 11:28:10;;;;;;;5.18;2.45;;;;;;;17.94;83.73;100157.06;5055136;28;20024;-68
2022/05/31 11:30:54;;;;;;;5.55;2.95;;;;;;;18.50;81.53;100149.53;5064934;28;20032;-68
2022/05/31 11:33:29;;;;;;;;;;;;;;;18.91;87.01;100154.75;5061875;28;20032;-68
2022/05/31 11:36:00;;;;;;;4.82;3.17;;;;;;;18.69;79.21;100147.81;5061675;28;19984;-68
2022/05/31 11:38:46;;;;;;;8.13;3.15;;;;;;;18.30;79.00;100152.09;5054546;28;20617;-68
2022/05/31 11:41:19;;;;;;;9.07;3.45;;;;;;;18.01;76.50;100160.88;5054371;28;20771;-68
2022/05/31 11:43:47;;;;;;;6.55;2.80;;;;;;;17.75;73.86;100160.41;5058993;28;20082;-68
2022/05/31 11:46:46;;;;;;;4.50;3.30;;;;;;;17.42;75.75;100152.53;5056932;28;20141;-68
2022/05/31 11:49:46;;;;;;;5.40;2.55;;;;;;;17.33;81.11;100167.44;5055601;28;20032;-68